sensor_id;sensor_type;location;lat;lon;timestamp;P1;durP1;ratioP1;P2;durP2;ratioP2
42988;SDS011;28622;43.716;20.668;2022-12-18T00:01:48;11.52;;;4.95;;
42988;SDS011;28622;43.716;20.668;2022-12-18T00:04:16;9.57;;;5.45;;
42988;SDS011;28622;43.716;20.668;2022-12-18T00:06:46;7.93;;;4.22;;
42988;SDS011;28622;43.716;20.668;2022-12-18T00:09:11;13.95;;;5.90;;
42988;SDS011;28622;43.716;20.668;2022-12-18T00:11:37;8.48;;;4.80;;
42988;SDS011;28622;43.716;20.668;2022-12-18T00:14:03;11.13;;;4.88;;
42988;SDS011;28622;43.716;20.668;2022-12-18T00:16:29;16.50;;;7.13;;
42988;SDS011;28622;43.716;20.668;2022-12-18T00:18:58;10.45;;;4.90;;
42988;SDS011;28622;43.716;20.668;2022-12-18T00:21:24;10.00;;;4.88;;
42988;SDS011;28622;43.716;20.668;2022-12-18T00:23:51;10.45;;;5.18;;
42988;SDS011;28622;43.716;20.668;2022-12-18T00:26:25;9.25;;;4.45;;
42988;SDS011;28622;43.716;20.668;2022-12-18T00:28:52;10.00;;;5.15;;
42988;SDS011;28622;43.716;20.668;2022-12-18T00:31:21;9.25;;;5.70;;
42988;SDS011;28622;43.716;20.668;2022-12-18T00:33:49;10.27;;;5.78;;
42988;SDS011;28622;43.716;20.668;2022-12-18T00:36:16;12.15;;;5.80;;
42988;SDS011;28622;43.716;20.668;2022-12-18T00:38:44;12.95;;;5.47;;
42988;SDS011;28622;43.716;20.668;2022-12-18T00:41:11;13.00;;;4.72;;
42988;SDS011;28622;43.716;20.668;2022-12-18T00:43:38;8.30;;;4.38;;
42988;SDS011;28622;43.716;20.668;2022-12-18T00:46:05;9.95;;;5.00;;
42988;SDS011;28622;43.716;20.668;2022-12-18T00:48:31;10.30;;;5.07;;
42988;SDS011;28622;43.716;20.668;2022-12-18T00:50:57;15.30;;;6.65;;
42988;SDS011;28622;43.716;20.668;2022-12-18T00:53:30;14.90;;;6.13;;
42988;SDS011;28622;43.716;20.668;2022-12-18T00:55:58;11.05;;;5.57;;
42988;SDS011;28622;43.716;20.668;2022-12-18T00:58:24;14.48;;;6.90;;
42988;SDS011;28622;43.716;20.668;2022-12-18T01:00:53;15.15;;;7.18;;
42988;SDS011;28622;43.716;20.668;2022-12-18T01:03:20;15.23;;;6.95;;
42988;SDS011;28622;43.716;20.668;2022-12-18T01:05:45;14.05;;;7.30;;
42988;SDS011;28622;43.716;20.668;2022-12-18T01:08:11;10.30;;;6.60;;
42988;SDS011;28622;43.716;20.668;2022-12-18T01:10:39;11.07;;;6.32;;
42988;SDS011;28622;43.716;20.668;2022-12-18T01:13:08;13.00;;;6.53;;
42988;SDS011;28622;43.716;20.668;2022-12-18T01:15:35;11.73;;;6.25;;
42988;SDS011;28622;43.716;20.668;2022-12-18T01:18:01;10.85;;;5.47;;
42988;SDS011;28622;43.716;20.668;2022-12-18T01:20:27;14.13;;;6.18;;
42988;SDS011;28622;43.716;20.668;2022-12-18T01:22:52;17.13;;;7.57;;
42988;SDS011;28622;43.716;20.668;2022-12-18T01:25:18;11.40;;;5.57;;
42988;SDS011;28622;43.716;20.668;2022-12-18T01:27:44;10.85;;;5.75;;
42988;SDS011;28622;43.716;20.668;2022-12-18T01:30:10;14.57;;;6.78;;
42988;SDS011;28622;43.716;20.668;2022-12-18T01:32:36;9.63;;;5.28;;
42988;SDS011;28622;43.716;20.668;2022-12-18T01:35:02;15.88;;;6.72;;
42988;SDS011;28622;43.716;20.668;2022-12-18T01:37:28;17.45;;;7.43;;
42988;SDS011;28622;43.716;20.668;2022-12-18T01:39:54;11.48;;;5.05;;
42988;SDS011;28622;43.716;20.668;2022-12-18T01:42:20;13.50;;;5.75;;
42988;SDS011;28622;43.716;20.668;2022-12-18T01:47:31;13.82;;;6.32;;
42988;SDS011;28622;43.716;20.668;2022-12-18T01:52:48;12.18;;;6.05;;
42988;SDS011;28622;43.716;20.668;2022-12-18T01:55:23;11.40;;;6.50;;
42988;SDS011;28622;43.716;20.668;2022-12-18T01:57:52;13.07;;;7.07;;
42988;SDS011;28622;43.716;20.668;2022-12-18T02:00:21;11.82;;;5.95;;
42988;SDS011;28622;43.716;20.668;2022-12-18T02:02:47;11.40;;;5.28;;
42988;SDS011;28622;43.716;20.668;2022-12-18T02:05:17;12.30;;;5.80;;
42988;SDS011;28622;43.716;20.668;2022-12-18T02:25:43;13.82;;;5.07;;
42988;SDS011;28622;43.716;20.668;2022-12-18T02:28:23;14.70;;;5.70;;
42988;SDS011;28622;43.716;20.668;2022-12-18T02:30:52;9.15;;;5.15;;
42988;SDS011;28622;43.716;20.668;2022-12-18T02:33:21;10.85;;;4.50;;
42988;SDS011;28622;43.716;20.668;2022-12-18T02:35:51;9.93;;;5.53;;
42988;SDS011;28622;43.716;20.668;2022-12-18T02:38:19;17.60;;;7.75;;
42988;SDS011;28622;43.716;20.668;2022-12-18T02:40:45;16.85;;;9.73;;
42988;SDS011;28622;43.716;20.668;2022-12-18T02:43:13;11.63;;;6.20;;
42988;SDS011;28622;43.716;20.668;2022-12-18T02:48:50;11.60;;;5.05;;
42988;SDS011;28622;43.716;20.668;2022-12-18T02:51:19;10.05;;;5.63;;
42988;SDS011;28622;43.716;20.668;2022-12-18T02:54:06;9.40;;;4.65;;
42988;SDS011;28622;43.716;20.668;2022-12-18T02:56:40;10.43;;;4.80;;
42988;SDS011;28622;43.716;20.668;2022-12-18T03:01:49;20.30;;;5.57;;
42988;SDS011;28622;43.716;20.668;2022-12-18T03:04:43;11.15;;;5.60;;
42988;SDS011;28622;43.716;20.668;2022-12-18T03:07:18;10.98;;;5.13;;
42988;SDS011;28622;43.716;20.668;2022-12-18T03:09:50;12.27;;;5.20;;
42988;SDS011;28622;43.716;20.668;2022-12-18T03:12:20;9.60;;;5.05;;
42988;SDS011;28622;43.716;20.668;2022-12-18T03:14:59;9.20;;;5.30;;
42988;SDS011;28622;43.716;20.668;2022-12-18T03:17:27;12.98;;;6.18;;
42988;SDS011;28622;43.716;20.668;2022-12-18T03:19:57;15.50;;;5.90;;
42988;SDS011;28622;43.716;20.668;2022-12-18T03:22:28;11.37;;;5.77;;
42988;SDS011;28622;43.716;20.668;2022-12-18T03:24:57;9.40;;;4.57;;
42988;SDS011;28622;43.716;20.668;2022-12-18T03:27:25;15.30;;;6.60;;
42988;SDS011;28622;43.716;20.668;2022-12-18T03:30:12;7.53;;;4.57;;
42988;SDS011;28622;43.716;20.668;2022-12-18T03:32:43;13.80;;;6.60;;
42988;SDS011;28622;43.716;20.668;2022-12-18T03:35:10;12.90;;;6.03;;
42988;SDS011;28622;43.716;20.668;2022-12-18T03:37:39;16.25;;;6.95;;
42988;SDS011;28622;43.716;20.668;2022-12-18T03:40:05;14.95;;;5.95;;
42988;SDS011;28622;43.716;20.668;2022-12-18T03:42:46;10.90;;;5.28;;
42988;SDS011;28622;43.716;20.668;2022-12-18T03:48:17;9.98;;;4.57;;
42988;SDS011;28622;43.716;20.668;2022-12-18T03:56:03;13.05;;;6.10;;
42988;SDS011;28622;43.716;20.668;2022-12-18T03:58:30;11.45;;;5.97;;
42988;SDS011;28622;43.716;20.668;2022-12-18T04:01:00;9.57;;;5.40;;
42988;SDS011;28622;43.716;20.668;2022-12-18T04:03:29;12.80;;;5.32;;
42988;SDS011;28622;43.716;20.668;2022-12-18T04:05:57;12.57;;;5.45;;
42988;SDS011;28622;43.716;20.668;2022-12-18T04:08:25;10.57;;;5.55;;
42988;SDS011;28622;43.716;20.668;2022-12-18T04:10:51;12.25;;;6.22;;
42988;SDS011;28622;43.716;20.668;2022-12-18T04:13:32;11.18;;;5.82;;
42988;SDS011;28622;43.716;20.668;2022-12-18T04:16:02;8.95;;;4.93;;
42988;SDS011;28622;43.716;20.668;2022-12-18T04:18:28;12.05;;;6.22;;
42988;SDS011;28622;43.716;20.668;2022-12-18T04:20:53;9.27;;;5.55;;
42988;SDS011;28622;43.716;20.668;2022-12-18T04:23:19;9.77;;;5.57;;
42988;SDS011;28622;43.716;20.668;2022-12-18T04:25:46;11.88;;;5.28;;
42988;SDS011;28622;43.716;20.668;2022-12-18T04:28:12;8.98;;;4.55;;
42988;SDS011;28622;43.716;20.668;2022-12-18T04:30:38;15.57;;;5.72;;
42988;SDS011;28622;43.716;20.668;2022-12-18T04:33:08;12.55;;;5.38;;
42988;SDS011;28622;43.716;20.668;2022-12-18T04:35:38;10.77;;;6.00;;
42988;SDS011;28622;43.716;20.668;2022-12-18T04:38:05;11.23;;;5.18;;
42988;SDS011;28622;43.716;20.668;2022-12-18T04:40:33;9.40;;;5.38;;
42988;SDS011;28622;43.716;20.668;2022-12-18T04:42:59;10.35;;;5.50;;
42988;SDS011;28622;43.716;20.668;2022-12-18T04:45:25;12.77;;;7.40;;
42988;SDS011;28622;43.716;20.668;2022-12-18T04:47:50;13.00;;;6.00;;
42988;SDS011;28622;43.716;20.668;2022-12-18T04:50:16;11.68;;;5.63;;
42988;SDS011;28622;43.716;20.668;2022-12-18T04:52:42;11.35;;;5.82;;
42988;SDS011;28622;43.716;20.668;2022-12-18T04:55:07;10.25;;;5.05;;
42988;SDS011;28622;43.716;20.668;2022-12-18T04:57:33;12.05;;;5.10;;
42988;SDS011;28622;43.716;20.668;2022-12-18T04:59:59;11.07;;;5.40;;
42988;SDS011;28622;43.716;20.668;2022-12-18T05:02:25;9.50;;;5.10;;
42988;SDS011;28622;43.716;20.668;2022-12-18T05:04:51;10.80;;;5.88;;
42988;SDS011;28622;43.716;20.668;2022-12-18T05:07:16;10.05;;;5.35;;
42988;SDS011;28622;43.716;20.668;2022-12-18T05:09:42;9.90;;;5.03;;
42988;SDS011;28622;43.716;20.668;2022-12-18T05:12:08;8.90;;;4.68;;
42988;SDS011;28622;43.716;20.668;2022-12-18T05:14:34;14.13;;;6.22;;
42988;SDS011;28622;43.716;20.668;2022-12-18T05:16:59;10.32;;;4.80;;
42988;SDS011;28622;43.716;20.668;2022-12-18T05:19:25;10.30;;;5.47;;
42988;SDS011;28622;43.716;20.668;2022-12-18T05:21:51;12.85;;;6.15;;
42988;SDS011;28622;43.716;20.668;2022-12-18T05:24:16;12.30;;;5.05;;
42988;SDS011;28622;43.716;20.668;2022-12-18T05:26:42;10.38;;;5.60;;
42988;SDS011;28622;43.716;20.668;2022-12-18T05:29:08;10.32;;;5.03;;
42988;SDS011;28622;43.716;20.668;2022-12-18T05:31:37;10.50;;;5.50;;
42988;SDS011;28622;43.716;20.668;2022-12-18T05:34:03;11.35;;;5.80;;
42988;SDS011;28622;43.716;20.668;2022-12-18T05:36:29;14.02;;;6.82;;
42988;SDS011;28622;43.716;20.668;2022-12-18T05:38:54;9.88;;;5.50;;
42988;SDS011;28622;43.716;20.668;2022-12-18T05:41:20;11.55;;;6.10;;
42988;SDS011;28622;43.716;20.668;2022-12-18T05:43:46;23.77;;;12.50;;
42988;SDS011;28622;43.716;20.668;2022-12-18T05:46:13;17.50;;;7.82;;
42988;SDS011;28622;43.716;20.668;2022-12-18T05:48:41;18.73;;;8.57;;
42988;SDS011;28622;43.716;20.668;2022-12-18T05:51:09;13.95;;;7.25;;
42988;SDS011;28622;43.716;20.668;2022-12-18T05:53:38;13.45;;;6.93;;
42988;SDS011;28622;43.716;20.668;2022-12-18T05:56:04;12.23;;;5.63;;
42988;SDS011;28622;43.716;20.668;2022-12-18T05:58:33;10.95;;;5.50;;
42988;SDS011;28622;43.716;20.668;2022-12-18T06:01:05;11.15;;;5.65;;
42988;SDS011;28622;43.716;20.668;2022-12-18T06:03:33;8.63;;;4.68;;
42988;SDS011;28622;43.716;20.668;2022-12-18T06:05:58;10.93;;;5.32;;
42988;SDS011;28622;43.716;20.668;2022-12-18T06:08:24;6.93;;;4.25;;
42988;SDS011;28622;43.716;20.668;2022-12-18T06:10:50;11.48;;;4.30;;
42988;SDS011;28622;43.716;20.668;2022-12-18T06:13:17;9.73;;;4.30;;
42988;SDS011;28622;43.716;20.668;2022-12-18T06:15:44;12.05;;;5.57;;
42988;SDS011;28622;43.716;20.668;2022-12-18T06:18:09;10.98;;;5.15;;
42988;SDS011;28622;43.716;20.668;2022-12-18T06:20:35;13.75;;;5.43;;
42988;SDS011;28622;43.716;20.668;2022-12-18T06:23:02;16.50;;;8.07;;
42988;SDS011;28622;43.716;20.668;2022-12-18T06:25:28;10.52;;;6.32;;
42988;SDS011;28622;43.716;20.668;2022-12-18T06:27:54;11.27;;;6.40;;
42988;SDS011;28622;43.716;20.668;2022-12-18T06:30:20;8.35;;;5.35;;
42988;SDS011;28622;43.716;20.668;2022-12-18T06:32:47;12.48;;;6.45;;
42988;SDS011;28622;43.716;20.668;2022-12-18T06:35:13;15.77;;;8.85;;
42988;SDS011;28622;43.716;20.668;2022-12-18T06:37:39;16.08;;;8.38;;
42988;SDS011;28622;43.716;20.668;2022-12-18T06:40:05;13.85;;;6.10;;
42988;SDS011;28622;43.716;20.668;2022-12-18T06:42:32;18.38;;;8.38;;
42988;SDS011;28622;43.716;20.668;2022-12-18T06:44:57;22.52;;;9.68;;
42988;SDS011;28622;43.716;20.668;2022-12-18T06:47:23;15.02;;;8.00;;
42988;SDS011;28622;43.716;20.668;2022-12-18T06:49:49;15.05;;;7.97;;
42988;SDS011;28622;43.716;20.668;2022-12-18T06:52:16;15.52;;;8.15;;
42988;SDS011;28622;43.716;20.668;2022-12-18T06:54:42;14.35;;;8.82;;
42988;SDS011;28622;43.716;20.668;2022-12-18T06:57:08;14.75;;;7.90;;
42988;SDS011;28622;43.716;20.668;2022-12-18T06:59:34;14.23;;;7.43;;
42988;SDS011;28622;43.716;20.668;2022-12-18T07:01:59;15.70;;;6.15;;
42988;SDS011;28622;43.716;20.668;2022-12-18T07:04:28;10.73;;;6.57;;
42988;SDS011;28622;43.716;20.668;2022-12-18T07:06:55;10.40;;;5.75;;
42988;SDS011;28622;43.716;20.668;2022-12-18T07:09:20;41.08;;;21.48;;
42988;SDS011;28622;43.716;20.668;2022-12-18T07:11:46;24.38;;;11.55;;
42988;SDS011;28622;43.716;20.668;2022-12-18T07:14:12;13.45;;;8.27;;
42988;SDS011;28622;43.716;20.668;2022-12-18T07:16:38;18.25;;;7.55;;
42988;SDS011;28622;43.716;20.668;2022-12-18T07:19:03;13.68;;;6.72;;
42988;SDS011;28622;43.716;20.668;2022-12-18T07:21:29;12.25;;;6.70;;
42988;SDS011;28622;43.716;20.668;2022-12-18T07:23:55;11.13;;;5.93;;
42988;SDS011;28622;43.716;20.668;2022-12-18T07:26:21;10.52;;;6.70;;
42988;SDS011;28622;43.716;20.668;2022-12-18T07:28:47;15.13;;;8.32;;
42988;SDS011;28622;43.716;20.668;2022-12-18T07:31:18;16.25;;;7.90;;
42988;SDS011;28622;43.716;20.668;2022-12-18T07:33:45;16.45;;;7.38;;
42988;SDS011;28622;43.716;20.668;2022-12-18T07:36:12;12.80;;;6.70;;
42988;SDS011;28622;43.716;20.668;2022-12-18T07:38:39;14.77;;;6.70;;
42988;SDS011;28622;43.716;20.668;2022-12-18T07:41:07;15.50;;;8.65;;
42988;SDS011;28622;43.716;20.668;2022-12-18T07:43:38;15.80;;;8.40;;
42988;SDS011;28622;43.716;20.668;2022-12-18T07:46:04;12.52;;;6.68;;
42988;SDS011;28622;43.716;20.668;2022-12-18T07:48:31;12.10;;;8.48;;
42988;SDS011;28622;43.716;20.668;2022-12-18T07:51:00;11.93;;;6.35;;
42988;SDS011;28622;43.716;20.668;2022-12-18T07:53:31;12.15;;;5.88;;
42988;SDS011;28622;43.716;20.668;2022-12-18T07:55:58;10.60;;;5.18;;
42988;SDS011;28622;43.716;20.668;2022-12-18T07:58:25;12.57;;;5.90;;
42988;SDS011;28622;43.716;20.668;2022-12-18T08:00:51;8.20;;;5.28;;
42988;SDS011;28622;43.716;20.668;2022-12-18T08:03:17;9.10;;;4.95;;
42988;SDS011;28622;43.716;20.668;2022-12-18T08:05:44;9.63;;;4.57;;
42988;SDS011;28622;43.716;20.668;2022-12-18T08:08:10;9.93;;;6.20;;
42988;SDS011;28622;43.716;20.668;2022-12-18T08:10:36;12.70;;;6.80;;
42988;SDS011;28622;43.716;20.668;2022-12-18T08:13:03;13.20;;;6.40;;
42988;SDS011;28622;43.716;20.668;2022-12-18T08:15:28;15.68;;;6.07;;
42988;SDS011;28622;43.716;20.668;2022-12-18T08:17:57;8.52;;;4.85;;
42988;SDS011;28622;43.716;20.668;2022-12-18T08:20:23;8.63;;;4.22;;
42988;SDS011;28622;43.716;20.668;2022-12-18T08:22:49;10.10;;;5.47;;
42988;SDS011;28622;43.716;20.668;2022-12-18T08:25:15;17.50;;;7.85;;
42988;SDS011;28622;43.716;20.668;2022-12-18T08:27:40;21.65;;;11.35;;
42988;SDS011;28622;43.716;20.668;2022-12-18T08:30:06;17.20;;;7.32;;
42988;SDS011;28622;43.716;20.668;2022-12-18T08:32:33;10.10;;;4.75;;
42988;SDS011;28622;43.716;20.668;2022-12-18T08:34:58;9.13;;;5.40;;
42988;SDS011;28622;43.716;20.668;2022-12-18T08:37:24;9.85;;;3.80;;
42988;SDS011;28622;43.716;20.668;2022-12-18T08:39:50;8.55;;;4.57;;
42988;SDS011;28622;43.716;20.668;2022-12-18T08:42:16;10.60;;;4.95;;
42988;SDS011;28622;43.716;20.668;2022-12-18T08:45:00;9.82;;;4.53;;
42988;SDS011;28622;43.716;20.668;2022-12-18T08:47:26;6.88;;;3.40;;
42988;SDS011;28622;43.716;20.668;2022-12-18T08:49:52;12.45;;;5.68;;
42988;SDS011;28622;43.716;20.668;2022-12-18T08:52:18;10.25;;;5.40;;
42988;SDS011;28622;43.716;20.668;2022-12-18T08:54:44;9.15;;;5.10;;
42988;SDS011;28622;43.716;20.668;2022-12-18T08:57:09;8.90;;;4.35;;
42988;SDS011;28622;43.716;20.668;2022-12-18T08:59:35;8.70;;;4.30;;
42988;SDS011;28622;43.716;20.668;2022-12-18T09:02:01;6.93;;;3.75;;
42988;SDS011;28622;43.716;20.668;2022-12-18T09:04:26;10.57;;;4.13;;
42988;SDS011;28622;43.716;20.668;2022-12-18T09:06:52;12.15;;;5.07;;
42988;SDS011;28622;43.716;20.668;2022-12-18T09:09:18;11.10;;;5.05;;
42988;SDS011;28622;43.716;20.668;2022-12-18T09:11:44;9.45;;;4.72;;
42988;SDS011;28622;43.716;20.668;2022-12-18T09:14:10;10.00;;;4.32;;
42988;SDS011;28622;43.716;20.668;2022-12-18T09:16:36;8.45;;;4.78;;
42988;SDS011;28622;43.716;20.668;2022-12-18T09:19:02;9.80;;;5.05;;
42988;SDS011;28622;43.716;20.668;2022-12-18T09:21:31;10.18;;;4.57;;
42988;SDS011;28622;43.716;20.668;2022-12-18T09:23:58;10.48;;;5.13;;
42988;SDS011;28622;43.716;20.668;2022-12-18T09:26:24;10.80;;;6.28;;
42988;SDS011;28622;43.716;20.668;2022-12-18T09:28:51;11.05;;;5.28;;
42988;SDS011;28622;43.716;20.668;2022-12-18T09:31:18;10.95;;;5.70;;
42988;SDS011;28622;43.716;20.668;2022-12-18T09:33:45;11.32;;;4.95;;
42988;SDS011;28622;43.716;20.668;2022-12-18T09:36:12;12.55;;;6.30;;
42988;SDS011;28622;43.716;20.668;2022-12-18T09:38:40;11.10;;;5.75;;
42988;SDS011;28622;43.716;20.668;2022-12-18T09:46:11;12.40;;;5.45;;
42988;SDS011;28622;43.716;20.668;2022-12-18T09:48:43;11.80;;;5.03;;
42988;SDS011;28622;43.716;20.668;2022-12-18T09:51:19;25.77;;;11.35;;
42988;SDS011;28622;43.716;20.668;2022-12-18T09:53:57;18.55;;;8.18;;
42988;SDS011;28622;43.716;20.668;2022-12-18T09:56:31;23.73;;;10.75;;
42988;SDS011;28622;43.716;20.668;2022-12-18T09:59:02;16.77;;;6.38;;
42988;SDS011;28622;43.716;20.668;2022-12-18T10:01:29;13.85;;;5.75;;
42988;SDS011;28622;43.716;20.668;2022-12-18T10:03:56;14.88;;;6.13;;
42988;SDS011;28622;43.716;20.668;2022-12-18T10:06:29;12.60;;;7.25;;
42988;SDS011;28622;43.716;20.668;2022-12-18T10:27:51;10.70;;;4.50;;
42988;SDS011;28622;43.716;20.668;2022-12-18T10:30:23;9.10;;;4.97;;
42988;SDS011;28622;43.716;20.668;2022-12-18T10:32:50;11.60;;;5.60;;
42988;SDS011;28622;43.716;20.668;2022-12-18T10:35:20;11.50;;;4.55;;
42988;SDS011;28622;43.716;20.668;2022-12-18T10:40:28;10.38;;;4.80;;
42988;SDS011;28622;43.716;20.668;2022-12-18T10:43:13;10.45;;;5.13;;
42988;SDS011;28622;43.716;20.668;2022-12-18T10:45:40;13.90;;;6.88;;
42988;SDS011;28622;43.716;20.668;2022-12-18T10:48:19;23.90;;;10.00;;
42988;SDS011;28622;43.716;20.668;2022-12-18T10:50:48;13.23;;;6.40;;
42988;SDS011;28622;43.716;20.668;2022-12-18T10:53:21;15.05;;;5.97;;
42988;SDS011;28622;43.716;20.668;2022-12-18T10:55:50;9.35;;;5.78;;
42988;SDS011;28622;43.716;20.668;2022-12-18T10:58:25;14.40;;;7.38;;
42988;SDS011;28622;43.716;20.668;2022-12-18T11:01:14;14.25;;;7.38;;
42988;SDS011;28622;43.716;20.668;2022-12-18T11:03:58;15.85;;;7.25;;
42988;SDS011;28622;43.716;20.668;2022-12-18T11:06:26;13.13;;;6.07;;
42988;SDS011;28622;43.716;20.668;2022-12-18T11:11:55;13.75;;;6.35;;
42988;SDS011;28622;43.716;20.668;2022-12-18T11:14:24;10.73;;;5.38;;
42988;SDS011;28622;43.716;20.668;2022-12-18T11:17:23;17.08;;;7.63;;
42988;SDS011;28622;43.716;20.668;2022-12-18T11:19:58;20.63;;;8.90;;
42988;SDS011;28622;43.716;20.668;2022-12-18T11:22:29;24.48;;;9.40;;
42988;SDS011;28622;43.716;20.668;2022-12-18T11:25:06;20.48;;;7.97;;
42988;SDS011;28622;43.716;20.668;2022-12-18T11:27:52;12.45;;;6.20;;
42988;SDS011;28622;43.716;20.668;2022-12-18T11:30:28;10.40;;;4.45;;
42988;SDS011;28622;43.716;20.668;2022-12-18T11:33:05;11.75;;;5.45;;
42988;SDS011;28622;43.716;20.668;2022-12-18T11:38:27;14.32;;;6.05;;
42988;SDS011;28622;43.716;20.668;2022-12-18T11:41:11;19.55;;;8.63;;
42988;SDS011;28622;43.716;20.668;2022-12-18T11:43:54;16.20;;;5.97;;
42988;SDS011;28622;43.716;20.668;2022-12-18T11:46:25;14.68;;;5.05;;
42988;SDS011;28622;43.716;20.668;2022-12-18T11:49:03;12.73;;;6.28;;
42988;SDS011;28622;43.716;20.668;2022-12-18T11:54:25;13.68;;;4.95;;
42988;SDS011;28622;43.716;20.668;2022-12-18T11:57:52;8.88;;;4.30;;
42988;SDS011;28622;43.716;20.668;2022-12-18T11:59:56;11.25;;;4.70;;
42988;SDS011;28622;43.716;20.668;2022-12-18T12:16:37;11.18;;;5.45;;
42988;SDS011;28622;43.716;20.668;2022-12-18T12:21:54;12.15;;;5.95;;
42988;SDS011;28622;43.716;20.668;2022-12-18T12:40:16;13.70;;;6.40;;
42988;SDS011;28622;43.716;20.668;2022-12-18T12:42:58;11.65;;;5.70;;
42988;SDS011;28622;43.716;20.668;2022-12-18T12:46:00;12.82;;;6.22;;
42988;SDS011;28622;43.716;20.668;2022-12-18T12:53:42;15.50;;;6.20;;
42988;SDS011;28622;43.716;20.668;2022-12-18T12:56:09;16.45;;;7.57;;
42988;SDS011;28622;43.716;20.668;2022-12-18T12:58:44;23.50;;;9.00;;
42988;SDS011;28622;43.716;20.668;2022-12-18T13:04:47;14.98;;;7.07;;
42988;SDS011;28622;43.716;20.668;2022-12-18T13:07:04;14.23;;;6.55;;
42988;SDS011;28622;43.716;20.668;2022-12-18T13:13:01;12.70;;;6.22;;
42988;SDS011;28622;43.716;20.668;2022-12-18T13:20:40;16.60;;;7.07;;
42988;SDS011;28622;43.716;20.668;2022-12-18T13:23:27;15.70;;;5.90;;
42988;SDS011;28622;43.716;20.668;2022-12-18T13:31:06;14.98;;;8.25;;
42988;SDS011;28622;43.716;20.668;2022-12-18T13:33:44;19.45;;;10.18;;
42988;SDS011;28622;43.716;20.668;2022-12-18T13:36:31;22.67;;;8.73;;
42988;SDS011;28622;43.716;20.668;2022-12-18T13:39:32;18.95;;;9.38;;
42988;SDS011;28622;43.716;20.668;2022-12-18T13:47:00;16.10;;;8.73;;
42988;SDS011;28622;43.716;20.668;2022-12-18T13:49:40;16.85;;;8.18;;
42988;SDS011;28622;43.716;20.668;2022-12-18T13:52:41;15.38;;;6.57;;
42988;SDS011;28622;43.716;20.668;2022-12-18T13:55:04;13.32;;;4.82;;
42988;SDS011;28622;43.716;20.668;2022-12-18T13:57:33;17.65;;;8.10;;
42988;SDS011;28622;43.716;20.668;2022-12-18T14:02:58;16.33;;;8.40;;
42988;SDS011;28622;43.716;20.668;2022-12-18T14:05:31;19.02;;;9.50;;
42988;SDS011;28622;43.716;20.668;2022-12-18T14:08:01;17.42;;;7.95;;
42988;SDS011;28622;43.716;20.668;2022-12-18T14:10:31;12.88;;;7.15;;
42988;SDS011;28622;43.716;20.668;2022-12-18T14:12:58;16.20;;;6.07;;
42988;SDS011;28622;43.716;20.668;2022-12-18T14:20:48;13.10;;;5.38;;
42988;SDS011;28622;43.716;20.668;2022-12-18T14:25:56;16.08;;;6.28;;
42988;SDS011;28622;43.716;20.668;2022-12-18T14:28:22;13.70;;;6.07;;
42988;SDS011;28622;43.716;20.668;2022-12-18T14:30:48;13.57;;;7.43;;
42988;SDS011;28622;43.716;20.668;2022-12-18T14:33:15;15.40;;;6.88;;
42988;SDS011;28622;43.716;20.668;2022-12-18T14:38:47;16.90;;;6.90;;
42988;SDS011;28622;43.716;20.668;2022-12-18T14:43:54;14.30;;;6.25;;
42988;SDS011;28622;43.716;20.668;2022-12-18T14:46:36;12.88;;;5.38;;
42988;SDS011;28622;43.716;20.668;2022-12-18T14:49:04;12.38;;;6.53;;
42988;SDS011;28622;43.716;20.668;2022-12-18T14:51:52;13.15;;;6.38;;
42988;SDS011;28622;43.716;20.668;2022-12-18T14:54:22;18.45;;;6.57;;
42988;SDS011;28622;43.716;20.668;2022-12-18T14:59:40;20.70;;;9.88;;
42988;SDS011;28622;43.716;20.668;2022-12-18T15:05:00;16.20;;;7.80;;
42988;SDS011;28622;43.716;20.668;2022-12-18T15:07:38;19.50;;;8.73;;
42988;SDS011;28622;43.716;20.668;2022-12-18T15:18:03;20.08;;;9.57;;
42988;SDS011;28622;43.716;20.668;2022-12-18T15:20:54;16.27;;;8.82;;
42988;SDS011;28622;43.716;20.668;2022-12-18T15:23:35;15.10;;;7.95;;
42988;SDS011;28622;43.716;20.668;2022-12-18T15:26:11;29.55;;;14.40;;
42988;SDS011;28622;43.716;20.668;2022-12-18T15:28:43;22.45;;;11.40;;
42988;SDS011;28622;43.716;20.668;2022-12-18T15:31:30;15.05;;;9.95;;
42988;SDS011;28622;43.716;20.668;2022-12-18T15:34:20;17.95;;;8.70;;
42988;SDS011;28622;43.716;20.668;2022-12-18T15:36:46;21.25;;;9.48;;
42988;SDS011;28622;43.716;20.668;2022-12-18T15:39:12;21.40;;;11.68;;
42988;SDS011;28622;43.716;20.668;2022-12-18T15:41:38;28.08;;;12.20;;
42988;SDS011;28622;43.716;20.668;2022-12-18T15:44:23;23.48;;;11.05;;
42988;SDS011;28622;43.716;20.668;2022-12-18T15:46:50;16.77;;;8.10;;
42988;SDS011;28622;43.716;20.668;2022-12-18T15:49:16;22.15;;;10.07;;
42988;SDS011;28622;43.716;20.668;2022-12-18T15:51:41;15.85;;;8.00;;
42988;SDS011;28622;43.716;20.668;2022-12-18T15:54:09;16.98;;;8.88;;
42988;SDS011;28622;43.716;20.668;2022-12-18T15:56:38;17.20;;;8.40;;
42988;SDS011;28622;43.716;20.668;2022-12-18T15:59:22;14.20;;;8.63;;
42988;SDS011;28622;43.716;20.668;2022-12-18T16:01:49;21.63;;;11.20;;
42988;SDS011;28622;43.716;20.668;2022-12-18T16:04:18;17.65;;;10.05;;
42988;SDS011;28622;43.716;20.668;2022-12-18T16:06:49;39.10;;;15.88;;
42988;SDS011;28622;43.716;20.668;2022-12-18T16:09:16;24.58;;;11.18;;
42988;SDS011;28622;43.716;20.668;2022-12-18T16:11:42;27.67;;;12.68;;
42988;SDS011;28622;43.716;20.668;2022-12-18T16:14:21;31.67;;;16.35;;
42988;SDS011;28622;43.716;20.668;2022-12-18T16:16:55;40.63;;;16.73;;
42988;SDS011;28622;43.716;20.668;2022-12-18T16:19:23;25.80;;;12.02;;
42988;SDS011;28622;43.716;20.668;2022-12-18T16:21:52;28.08;;;13.25;;
42988;SDS011;28622;43.716;20.668;2022-12-18T16:24:22;42.75;;;22.00;;
42988;SDS011;28622;43.716;20.668;2022-12-18T16:26:52;37.92;;;17.25;;
42988;SDS011;28622;43.716;20.668;2022-12-18T16:29:20;23.90;;;12.85;;
42988;SDS011;28622;43.716;20.668;2022-12-18T16:31:50;27.58;;;13.98;;
42988;SDS011;28622;43.716;20.668;2022-12-18T16:34:23;31.10;;;16.25;;
42988;SDS011;28622;43.716;20.668;2022-12-18T16:36:56;30.55;;;14.23;;
42988;SDS011;28622;43.716;20.668;2022-12-18T16:39:24;23.10;;;11.95;;
42988;SDS011;28622;43.716;20.668;2022-12-18T16:41:50;27.98;;;13.70;;
42988;SDS011;28622;43.716;20.668;2022-12-18T16:44:16;42.63;;;18.73;;
42988;SDS011;28622;43.716;20.668;2022-12-18T16:46:43;52.35;;;18.65;;
42988;SDS011;28622;43.716;20.668;2022-12-18T16:49:12;34.05;;;14.30;;
42988;SDS011;28622;43.716;20.668;2022-12-18T16:51:38;31.50;;;16.00;;
42988;SDS011;28622;43.716;20.668;2022-12-18T16:54:04;24.65;;;10.65;;
42988;SDS011;28622;43.716;20.668;2022-12-18T16:56:30;16.52;;;8.30;;
42988;SDS011;28622;43.716;20.668;2022-12-18T16:58:57;16.67;;;8.00;;
42988;SDS011;28622;43.716;20.668;2022-12-18T17:01:25;19.85;;;7.85;;
42988;SDS011;28622;43.716;20.668;2022-12-18T17:04:00;23.17;;;9.48;;
42988;SDS011;28622;43.716;20.668;2022-12-18T17:06:28;16.35;;;8.70;;
42988;SDS011;28622;43.716;20.668;2022-12-18T17:09:01;15.50;;;7.80;;
42988;SDS011;28622;43.716;20.668;2022-12-18T17:11:30;22.88;;;9.00;;
42988;SDS011;28622;43.716;20.668;2022-12-18T17:13:57;14.63;;;7.10;;
42988;SDS011;28622;43.716;20.668;2022-12-18T17:16:23;14.77;;;8.48;;
42988;SDS011;28622;43.716;20.668;2022-12-18T17:18:51;13.55;;;7.75;;